createdAt,value
2022-12-08T00:02:08.330Z,99598.25
2022-12-08T00:07:28.568Z,99601.38
2022-12-08T00:12:30.116Z,99593.88
2022-12-08T00:17:31.718Z,99591.81
2022-12-08T00:22:33.297Z,99596.19
2022-12-08T00:27:34.930Z,99599.81
2022-12-08T00:32:37.636Z,99597.41
2022-12-08T00:37:39.177Z,99597.25
2022-12-08T00:42:40.785Z,99593.38
2022-12-08T00:47:42.375Z,99582.72
2022-12-08T00:52:43.950Z,99577.06
2022-12-08T00:57:45.546Z,99587.91
2022-12-08T01:02:47.150Z,99585.94
2022-12-08T01:07:49.435Z,99583.81
2022-12-08T01:12:51.062Z,99585.50
2022-12-08T01:17:52.631Z,99587.88
2022-12-08T01:22:54.168Z,99581.59
2022-12-08T01:27:55.746Z,99587.16
2022-12-08T01:32:57.352Z,99578.88
2022-12-08T01:37:58.976Z,99581.41
2022-12-08T01:43:00.510Z,99565.06
2022-12-08T01:48:09.074Z,99560.63
2022-12-08T01:53:23.295Z,99559.41
2022-12-08T01:58:32.057Z,99564.34
2022-12-08T02:03:51.679Z,99553.75
2022-12-08T02:08:55.151Z,99548.28
2022-12-08T02:13:57.675Z,99542.84
2022-12-08T02:19:33.251Z,99538.91
2022-12-08T02:24:57.671Z,99529.09
2022-12-08T02:30:14.348Z,99532.69
2022-12-08T02:35:42.532Z,99527.63
2022-12-08T02:40:59.331Z,99530.25
2022-12-08T02:46:05.423Z,99526.03
2022-12-08T02:51:06.997Z,99519.63
2022-12-08T02:56:40.487Z,99518.22
2022-12-08T03:02:17.946Z,99514.75
2022-12-08T03:07:24.620Z,99509.03
2022-12-08T03:12:28.641Z,99511.91
2022-12-08T03:17:31.576Z,99499.56
2022-12-08T03:22:33.368Z,99507.84
2022-12-08T03:27:34.929Z,99502.97
2022-12-08T03:33:00.676Z,99498.75
2022-12-08T03:38:08.208Z,99493.56
2022-12-08T03:43:09.977Z,99486.31
2022-12-08T03:48:11.532Z,99488.13
2022-12-08T03:53:13.072Z,99478.91
2022-12-08T03:58:14.702Z,99476.66
2022-12-08T04:03:16.323Z,99469.84
2022-12-08T04:08:17.960Z,99463.75
2022-12-08T04:13:19.632Z,99468.59
2022-12-08T04:18:21.215Z,99467.00
2022-12-08T04:23:23.104Z,99462.13
2022-12-08T04:28:24.638Z,99449.38
2022-12-08T04:33:26.548Z,99455.44
2022-12-08T04:38:28.464Z,99452.78
2022-12-08T04:43:30.242Z,99450.41
2022-12-08T04:48:31.815Z,99441.75
2022-12-08T04:53:33.736Z,99436.41
2022-12-08T04:58:35.310Z,99438.38
2022-12-08T05:03:36.864Z,99439.81
2022-12-08T05:08:38.441Z,99440.91
2022-12-08T05:13:40.036Z,99445.66
2022-12-08T05:18:42.167Z,99441.91
2022-12-08T05:23:44.059Z,99436.97
2022-12-08T05:28:45.714Z,99423.31
2022-12-08T05:33:49.311Z,99415.38
2022-12-08T05:38:50.957Z,99424.13
2022-12-08T05:43:52.568Z,99417.16
2022-12-08T05:48:54.104Z,99414.00
2022-12-08T05:53:56.148Z,99405.56
2022-12-08T05:58:57.732Z,99417.84
2022-12-08T06:04:01.037Z,99421.34
2022-12-08T06:09:04.770Z,99420.69
2022-12-08T06:14:10.987Z,99423.88
2022-12-08T06:19:12.647Z,99429.06
2022-12-08T06:24:14.620Z,99431.44
2022-12-08T06:29:16.229Z,99433.94
2022-12-08T06:34:17.844Z,99439.09
2022-12-08T06:39:19.408Z,99431.00
2022-12-08T06:44:21.058Z,99431.84
2022-12-08T06:49:22.703Z,99429.19
2022-12-08T06:54:24.302Z,99439.81
2022-12-08T06:59:28.637Z,99440.63
2022-12-08T07:04:30.226Z,99438.69
2022-12-08T07:09:31.837Z,99446.38
2022-12-08T07:14:33.428Z,99441.50
2022-12-08T07:19:34.972Z,99436.19
2022-12-08T07:24:36.520Z,99442.03
2022-12-08T07:29:38.064Z,99439.56
2022-12-08T07:34:39.599Z,99439.81
2022-12-08T07:39:41.187Z,99437.16
2022-12-08T07:44:42.770Z,99437.16
2022-12-08T07:49:44.298Z,99442.47
2022-12-08T07:54:45.838Z,99442.34
2022-12-08T07:59:47.495Z,99442.59
2022-12-08T08:04:52.048Z,99436.59
2022-12-08T08:09:53.697Z,99440.53
2022-12-08T08:14:55.306Z,99449.16
2022-12-08T08:19:57.134Z,99449.34
2022-12-08T08:24:58.725Z,99453.22
2022-12-08T08:30:00.338Z,99454.59
2022-12-08T08:35:03.028Z,99448.44
2022-12-08T08:40:05.624Z,99446.22
2022-12-08T08:45:07.875Z,99454.91
2022-12-08T08:50:09.725Z,99451.25
2022-12-08T08:55:12.078Z,99462.31
2022-12-08T09:00:14.372Z,99448.91
2022-12-08T09:05:16.782Z,99457.41
2022-12-08T09:10:18.451Z,99461.88
2022-12-08T09:15:20.750Z,99463.41
2022-12-08T09:20:22.341Z,99462.19
2022-12-08T09:25:23.935Z,99461.59
2022-12-08T09:30:25.518Z,99442.88
2022-12-08T09:35:27.083Z,99448.78
2022-12-08T09:40:30.086Z,99442.47
2022-12-08T09:45:34.747Z,99431.19
2022-12-08T09:50:52.643Z,99430.84
2022-12-08T09:55:58.015Z,99414.38
2022-12-08T10:00:59.822Z,99412.16
2022-12-08T10:06:08.899Z,99403.03
2022-12-08T10:11:42.203Z,99407.78
2022-12-08T10:16:48.595Z,99407.50
2022-12-08T10:21:51.355Z,99397.50
2022-12-08T10:26:53.925Z,99393.88
2022-12-08T10:31:59.860Z,99389.91
2022-12-08T10:37:09.559Z,99392.16
2022-12-08T10:42:14.219Z,99387.38
2022-12-08T10:47:15.834Z,99377.72
2022-12-08T10:52:23.549Z,99373.88
2022-12-08T10:57:25.407Z,99370.97
2022-12-08T11:02:27.074Z,99369.06
2022-12-08T11:07:28.827Z,99358.06
2022-12-08T11:12:31.363Z,99354.31
2022-12-08T11:17:39.396Z,99357.28
2022-12-08T11:22:43.200Z,99359.56
2022-12-08T11:27:47.639Z,99345.88
2022-12-08T11:32:52.446Z,99342.78
2022-12-08T11:38:07.868Z,99331.00
2022-12-08T11:43:24.166Z,99331.75
2022-12-08T11:48:47.874Z,99334.22
2022-12-08T11:53:49.463Z,99335.91
2022-12-08T11:58:56.168Z,99324.75
2022-12-08T12:04:03.495Z,99328.44
2022-12-08T12:09:36.368Z,99332.66
2022-12-08T12:14:46.720Z,99331.41
2022-12-08T12:19:48.532Z,99323.13
2022-12-08T12:24:51.620Z,99315.53
2022-12-08T12:30:06.427Z,99316.25
2022-12-08T12:35:15.849Z,99310.41
2022-12-08T12:40:19.654Z,99311.25
2022-12-08T12:45:21.138Z,99308.19
2022-12-08T12:50:34.658Z,99307.28
2022-12-08T12:55:45.329Z,99297.41
2022-12-08T13:00:46.946Z,99298.06
2022-12-08T13:05:53.007Z,99289.97
2022-12-08T13:11:07.035Z,99291.31
2022-12-08T13:16:18.496Z,99282.34
2022-12-08T13:21:23.035Z,99277.63
2022-12-08T13:26:26.128Z,99266.00
2022-12-08T13:31:46.608Z,99261.22
2022-12-08T13:37:08.236Z,99270.19
2022-12-08T13:42:12.547Z,99273.78
2022-12-08T13:47:35.949Z,99276.88
2022-12-08T13:58:06.184Z,99287.44
2022-12-08T14:03:11.249Z,99287.69
2022-12-08T14:09:00.090Z,99286.94
2022-12-08T14:13:54.911Z,99276.78
2022-12-08T14:19:04.852Z,99277.00
2022-12-08T14:24:06.531Z,99273.81
2022-12-08T14:29:09.686Z,99278.22
2022-12-08T14:34:12.138Z,99271.63
2022-12-08T14:39:13.776Z,99272.66
2022-12-08T14:44:23.781Z,99269.53
2022-12-08T14:49:33.396Z,99274.13
2022-12-08T14:54:35.455Z,99278.09
2022-12-08T14:59:38.135Z,99275.06
2022-12-08T15:04:42.561Z,99276.03
2022-12-08T15:09:50.201Z,99281.34
2022-12-08T15:15:13.873Z,99284.53
2022-12-08T15:20:40.655Z,99295.59
2022-12-08T15:25:42.237Z,99291.66
2022-12-08T15:30:43.925Z,99293.41
2022-12-08T15:35:46.690Z,99294.03
2022-12-08T15:40:48.312Z,99295.25
2022-12-08T15:45:58.435Z,99298.50
2022-12-08T15:51:00.836Z,99298.50
2022-12-08T16:01:28.488Z,99294.06
2022-12-08T16:12:10.743Z,99289.03
2022-12-08T16:17:16.641Z,99291.56
2022-12-08T16:33:03.890Z,99297.41
2022-12-08T16:38:05.608Z,99296.25
2022-12-08T16:43:08.929Z,99296.25
2022-12-08T16:48:13.846Z,99299.03
2022-12-08T16:53:15.414Z,99297.16
2022-12-08T16:58:18.439Z,99293.72
2022-12-08T17:03:20.016Z,99293.66
2022-12-08T17:08:21.655Z,99298.56
2022-12-08T17:13:23.301Z,99295.16
2022-12-08T17:18:24.874Z,99297.34
2022-12-08T17:23:26.495Z,99291.13
2022-12-08T17:28:58.331Z,99301.50
2022-12-08T17:33:50.091Z,99294.47
2022-12-08T17:38:51.636Z,99295.44
2022-12-08T17:43:53.235Z,99307.84
2022-12-08T17:48:54.808Z,99301.94
2022-12-08T17:53:56.414Z,99292.09
2022-12-08T17:58:58.093Z,99295.59
2022-12-08T18:04:03.534Z,99289.91
2022-12-08T18:09:06.857Z,99292.88
2022-12-08T18:14:11.857Z,99292.66
2022-12-08T18:19:14.468Z,99283.50
2022-12-08T18:24:19.058Z,99282.94
2022-12-08T18:29:21.784Z,99283.72
2022-12-08T18:34:23.352Z,99279.81
2022-12-08T18:39:30.530Z,99273.50
2022-12-08T18:44:32.097Z,99280.56
2022-12-08T18:49:33.697Z,99284.78
2022-12-08T18:54:58.042Z,99276.28
2022-12-08T18:59:56.980Z,99275.31
2022-12-08T19:04:58.565Z,99270.84
2022-12-08T19:10:00.146Z,99279.59
2022-12-08T19:15:01.822Z,99278.50
2022-12-08T19:20:05.080Z,99280.19
2022-12-08T19:25:07.415Z,99291.06
2022-12-08T19:30:10.357Z,99284.31
2022-12-08T19:35:12.099Z,99286.56
2022-12-08T19:40:32.625Z,99290.63
2022-12-08T19:45:35.525Z,99296.28
2022-12-08T19:50:37.382Z,99286.16
2022-12-08T19:55:39.217Z,99290.41
2022-12-08T20:00:41.377Z,99307.72
2022-12-08T20:05:43.522Z,99293.47
2022-12-08T20:10:45.757Z,99308.25
2022-12-08T20:15:47.486Z,99313.94
2022-12-08T20:20:49.166Z,99301.34
2022-12-08T20:25:50.826Z,99310.19
2022-12-08T20:30:52.486Z,99316.00
2022-12-08T20:36:07.919Z,99324.84
2022-12-08T20:41:09.773Z,99327.81
2022-12-08T20:46:13.486Z,99332.94
2022-12-08T20:51:17.214Z,99329.59
2022-12-08T20:56:21.395Z,99340.97
2022-12-08T21:01:24.318Z,99342.06
2022-12-08T21:06:29.639Z,99347.25
2022-12-08T21:11:31.443Z,99343.34
2022-12-08T21:16:33.370Z,99345.31
2022-12-08T21:21:35.515Z,99344.72
2022-12-08T21:26:37.743Z,99349.91
2022-12-08T21:31:39.831Z,99352.47
2022-12-08T21:36:41.765Z,99352.56
2022-12-08T21:42:02.566Z,99365.19
2022-12-08T21:47:05.083Z,99369.09
2022-12-08T21:52:07.317Z,99370.09
2022-12-08T21:57:08.989Z,99354.00
2022-12-08T22:02:19.464Z,99357.63
2022-12-08T22:07:23.760Z,99347.59
2022-12-08T22:12:25.454Z,99358.47
2022-12-08T22:17:27.250Z,99362.25
2022-12-08T22:22:29.178Z,99357.06
2022-12-08T22:27:30.873Z,99354.03
2022-12-08T22:32:32.702Z,99359.34
2022-12-08T22:37:34.407Z,99357.63
2022-12-08T22:42:36.158Z,99361.84
2022-12-08T22:47:37.869Z,99356.16
2022-12-08T22:52:39.664Z,99358.63
2022-12-08T22:57:43.658Z,99356.81
2022-12-08T23:02:45.556Z,99353.75
2022-12-08T23:07:47.463Z,99366.19
2022-12-08T23:12:49.132Z,99364.22
2022-12-08T23:17:50.805Z,99354.31
2022-12-08T23:22:52.961Z,99360.19
2022-12-08T23:27:54.763Z,99363.94
2022-12-08T23:32:56.616Z,99357.94
2022-12-08T23:37:58.213Z,99361.56
2022-12-08T23:42:59.798Z,99357.25
2022-12-08T23:48:01.517Z,99353.50
2022-12-08T23:53:03.338Z,99357.41
2022-12-08T23:58:05.130Z,99352.22
